Date,TemperatureHighF,TemperatureAvgF,TemperatureLowF,DewpointHighF,DewpointAvgF,DewpointLowF,HumidityHigh,HumidityAvg,HumidityLow,PressureMaxIn,PressureMinIn,WindSpeedMaxMPH,WindSpeedAvgMPH,GustSpeedMaxMPH,PrecipitationSumIn
2014-1-2,-3,-5,-6,-7,-8,-10,85,84,83,30.21,29.98,18,11,24,0.00
2014-1-3,2,-3,-7,-5,-9,-12,85,77,64,30.34,29.82,16,10,33,0.00
2014-1-4,26,7,-14,18,2,-17,92,80,70,30.45,30.17,14,4,22,0.00
2014-1-5,34,21,6,33,16,3,97,80,52,30.30,30.07,14,2,21,0.00
2014-1-6,52,44,32,52,43,22,99,95,65,30.07,29.21,33,13,45,0.54
2014-1-7,32,17,8,21,2,-9,92,54,32,30.04,29.30,26,15,40,0.00
2014-1-8,20,12,3,5,1,-7,88,60,45,30.36,30.04,20,9,28,0.00
2014-1-9,24,13,3,7,4,0,90,68,42,30.61,30.35,26,6,29,0.00
2014-1-10,29,16,0,26,13,-3,95,90,84,30.58,30.27,4,1,8,0.01
2014-1-11,52,41,24,52,41,22,99,97,94,30.27,29.17,27,10,39,0.43
2014-1-12,50,43,37,49,35,26,99,73,53,29.84,29.18,26,11,35,0.01
2014-1-13,44,39,32,41,31,25,92,73,62,30.07,29.84,21,8,26,0.00
2014-1-14,48,45,42,45,43,41,98,94,89,29.88,29.51,21,8,28,0.96
2014-1-15,44,37,30,41,35,29,97,92,75,30.00,29.56,13,4,19,0.03
2014-1-16,37,34,30,36,34,29,99,97,94,29.92,29.85,6,1,10,0.00
2014-1-17,42,35,27,40,34,26,97,93,82,29.93,29.87,18,3,22,0.00
2014-1-18,35,31,27,32,29,26,98,95,80,29.90,29.64,7,2,14,0.11
2014-1-19,32,30,29,32,28,24,98,92,82,29.66,29.39,23,6,26,0.14
2014-1-20,36,29,10,28,22,-3,89,77,50,29.82,29.43,23,10,28,0.00
2014-1-21,13,8,3,0,-4,-7,67,56,47,30.06,29.82,16,6,28,0.00
2014-1-22,11,6,3,-2,-4,-6,68,61,54,29.95,29.56,17,11,28,0.00
2014-1-23,18,8,-4,2,-3,-8,83,62,48,30.03,29.80,11,6,21,0.00
2014-1-24,14,5,-2,-1,-4,-6,88,69,44,30.15,30.01,12,4,16,0.00
2014-1-25,40,29,-1,34,23,-4,94,78,61,30.01,29.18,24,14,38,0.10
2014-1-26,28,16,9,24,3,-11,87,59,32,29.89,29.18,31,10,38,0.01
2014-1-27,44,29,13,41,19,-3,93,69,34,29.90,29.42,26,12,42,0.02
2014-1-28,18,15,10,5,-4,-9,70,43,32,30.25,29.90,15,7,26,0.00
2014-1-29,24,18,13,3,-2,-6,57,43,28,30.19,29.86,15,6,18,0.00
2014-1-30,29,19,12,21,8,-2,89,62,44,30.39,30.09,15,6,17,0.00
2014-1-31,36,32,26,28,20,14,86,63,44,30.14,29.93,21,9,33,0.00
2014-2-1,39,31,21,33,25,18,91,79,50,30.31,30.00,12,3,17,0.00
2014-2-2,43,38,33,36,34,30,96,87,74,30.00,29.81,13,4,17,0.00
2014-2-3,34,29,20,30,18,14,89,65,51,30.27,30.00,12,5,19,0.00
2014-2-4,31,23,14,19,15,11,88,73,49,30.43,30.26,8,3,14,0.00
2014-2-5,25,22,18,21,18,11,94,85,58,30.37,29.70,16,7,21,0.18
2014-2-6,21,14,6,15,10,4,91,85,69,30.23,29.90,9,2,13,0.01
2014-2-7,26,16,2,13,8,-1,91,72,45,30.16,30.06,12,3,17,0.00
2014-2-8,27,17,2,14,7,-1,90,66,41,30.20,30.09,12,3,18,0.00
2014-2-9,24,19,12,17,10,5,90,66,45,30.17,29.96,9,2,12,0.00
2014-2-10,23,20,8,19,12,1,92,73,54,30.16,29.89,15,5,21,0.03
2014-2-11,22,10,-5,8,-1,-8,89,62,38,30.36,30.15,18,7,26,0.00
2014-2-12,28,12,1,8,-2,-7,82,55,26,30.52,30.36,7,3,14,0.00
2014-2-13,34,32,25,33,30,16,98,95,69,30.24,29.15,24,12,40,0.63
2014-2-14,35,32,26,35,28,18,98,84,64,29.61,28.66,33,12,40,0.26
2014-2-15,33,28,18,30,24,16,96,85,69,29.87,29.40,18,6,24,0.03
2014-2-16,27,24,23,23,16,9,95,73,48,29.65,29.33,31,17,36,0.02
2014-2-17,14,12,11,0,-2,-4,54,52,50,30.32,30.32,5,4,13,0.00
2014-2-18,33,18,-4,30,14,-7,97,85,73,30.38,29.86,15,6,22,0.15
2014-2-19,34,29,20,32,28,18,98,95,93,30.05,29.69,13,4,16,0.25
2014-2-20,46,37,32,34,31,24,98,81,40,30.18,29.72,23,7,24,0.00
2014-2-21,47,36,33,46,36,32,98,97,94,30.18,29.60,20,8,26,0.82
2014-2-22,44,39,29,35,32,25,98,77,54,29.85,29.69,23,10,34,0.00
2014-2-23,43,40,37,34,28,20,81,62,41,29.92,29.71,17,8,22,0.00
2014-2-24,41,30,18,25,12,4,72,48,36,29.83,29.62,24,10,33,0.00
2014-2-25,23,18,11,8,4,0,71,54,40,29.90,29.79,20,8,27,0.00
2014-2-26,26,16,3,18,7,-1,87,69,48,29.89,29.69,19,6,26,0.00
2014-2-27,25,13,0,16,6,-3,89,75,47,29.83,29.58,13,3,19,0.00
2014-2-28,20,15,6,10,-2,-10,90,51,26,30.43,29.72,19,9,29,0.00
2014-3-1,34,21,1,26,14,-2,88,74,51,30.44,30.02,16,8,30,0.00
2014-3-2,33,28,19,22,13,3,65,53,42,30.02,29.94,15,6,19,0.00
2014-3-3,21,15,9,4,-3,-8,58,44,30,30.26,29.99,20,8,24,0.00
2014-3-4,24,14,-3,15,2,-9,84,60,36,30.35,30.22,13,4,20,0.00
2014-3-5,21,15,6,11,4,-1,86,65,42,30.49,30.25,10,5,15,0.00
2014-3-6,30,16,5,7,-5,-13,76,43,15,30.60,30.49,14,4,17,0.00
2014-3-7,34,21,2,25,14,-1,93,76,54,30.48,29.95,14,4,23,0.00
2014-3-8,46,32,17,30,21,15,94,68,41,29.95,29.65,14,5,23,0.00
2014-3-9,34,28,22,15,8,0,61,44,25,29.89,29.80,16,7,22,0.00
2014-3-10,32,27,22,26,17,0,84,69,34,29.85,29.65,13,4,16,0.00
2014-3-11,45,39,32,37,32,26,96,79,60,29.68,29.48,15,7,20,0.08
2014-3-12,40,34,28,34,31,26,95,87,71,29.71,29.09,24,6,30,1.09
2014-3-13,29,17,13,25,12,5,91,80,67,29.77,29.02,24,14,34,0.01
2014-3-14,36,22,8,28,10,0,89,62,38,30.09,29.77,17,8,25,0.00
2014-3-15,43,39,31,39,35,28,94,85,72,29.87,29.60,22,8,27,0.06
2014-3-16,36,25,13,32,8,-5,96,49,33,30.18,29.72,25,15,34,0.00
2014-3-17,24,16,9,0,-4,-7,55,42,29,30.19,30.01,14,7,20,0.00
2014-3-18,35,22,6,18,4,-3,83,52,22,30.35,30.15,12,3,16,0.00
2014-3-19,36,28,15,26,19,13,91,70,51,30.40,30.08,12,5,17,0.00
2014-3-20,44,38,33,43,36,25,97,90,68,30.08,29.46,17,6,25,0.79
2014-3-21,39,35,31,30,24,19,85,64,49,29.92,29.60,26,12,32,0.01
2014-3-22,38,33,25,35,26,18,94,75,53,29.98,29.62,18,6,26,0.03
2014-3-23,36,28,15,26,14,-1,91,58,30,30.05,29.84,23,9,30,0.00
2014-3-24,26,18,9,2,-1,-5,57,43,32,30.10,29.97,22,10,26,0.00
2014-3-25,31,22,6,23,10,1,86,64,37,30.12,30.01,18,5,24,0.00
2014-3-26,32,28,23,21,15,10,86,60,40,30.02,29.43,28,14,41,0.01
2014-3-27,35,26,16,27,5,-4,71,41,27,30.22,29.73,23,12,37,0.00
2014-3-28,43,39,34,42,34,27,97,83,71,30.19,29.90,25,9,32,0.01
2014-3-29,49,42,34,42,37,33,98,81,57,30.25,29.94,16,6,21,0.06
2014-3-30,38,36,33,36,34,31,95,94,90,30.15,29.71,26,12,33,1.09
2014-3-31,36,34,32,31,29,28,90,84,77,29.97,29.71,23,15,35,0.00
2014-4-1,49,38,28,28,21,7,78,55,18,30.08,29.95,23,10,30,0.00
2014-4-2,40,32,25,27,22,13,93,68,42,30.12,30.05,11,3,16,0.00
2014-4-3,46,36,24,33,25,22,95,67,38,30.13,30.02,13,4,21,0.00
2014-4-4,33,30,27,22,21,20,81,69,59,30.15,30.12,6,2,9,0.00
2014-4-5,47,43,38,42,37,25,97,79,58,29.77,29.58,22,10,30,0.37
2014-4-6,50,41,30,27,22,17,83,51,26,30.12,29.77,21,11,30,0.00
2014-4-7,55,41,27,37,29,24,90,67,33,30.21,30.04,17,5,26,0.00
2014-4-8,50,44,40,49,43,36,98,97,87,30.04,29.27,20,7,30,1.07
2014-4-9,49,43,33,42,28,14,95,60,27,29.87,29.33,22,10,32,0.00
2014-4-10,46,36,26,28,22,16,82,57,40,30.10,29.87,26,8,33,0.00
2014-4-12,50,43,38,36,35,34,86,76,56,30.22,30.09,6,1,14,0.00
2014-4-13,46,41,38,43,36,30,95,82,54,30.34,30.02,13,7,23,0.14
2014-4-14,59,51,41,52,48,40,98,89,75,30.01,29.82,29,13,39,0.00
2014-4-15,56,53,50,52,51,49,97,93,86,29.88,29.57,25,15,40,0.29
2014-4-16,50,34,28,42,16,10,94,51,33,30.63,29.59,27,11,33,0.25
2014-4-17,39,31,23,25,18,12,88,60,37,30.84,30.63,19,5,22,0.00